Time;durP1;ratioP1;P1;durP2;ratioP2;P2;SDS_P1;SDS_P2;PMS_P1;PMS_P2;Temp;Humidity;BMP_temperature;BMP_pressure;BME280_temperature;BME280_humidity;BME280_pressure;Samples;Min_cycle;Max_cycle;Signal;HPM_P1;HPM_P2
2021/06/08 00:00:16;;;;;;;;;;;;;;;20.11;69.46;100852.53;5052065;28;1726;-46
2021/06/08 00:02:46;;;;;;;;;;;;;;;20.08;69.81;100844.78;5044912;28;1604;-46
2021/06/08 00:05:15;;;;;;;;;;;;;;;20.08;68.70;100828.69;5051920;28;1711;-46
2021/06/08 00:07:45;;;;;;;;;;;;;;;20.10;69.24;100829.38;5047757;28;1952;-46
2021/06/08 00:10:12;;;;;;;;;;;;;;;20.09;69.44;100819.63;5046948;28;1736;-46
2021/06/08 00:12:39;;;;;;;;;;;;;;;20.10;69.63;100837.44;5047887;28;1921;-45
2021/06/08 00:15:27;;;;;;;;;;;;;;;20.09;68.72;100830.34;5047417;28;1898;-46
2021/06/08 00:17:56;;;;;;;;;;;;;;;20.08;69.05;100830.50;5044994;28;1539;-46
2021/06/08 00:20:26;;;;;;;;;;;;;;;20.02;69.51;100842.66;5053317;28;1402;-46
2021/06/08 00:22:57;;;;;;;;;;;;;;;20.04;69.12;100832.63;5046103;28;1656;-46
2021/06/08 00:25:27;;;;;;;;;;;;;;;19.99;69.06;100819.59;5048804;28;1559;-46
2021/06/08 00:27:53;;;;;;;;;;;;;;;20.01;69.33;100832.91;5045965;28;1762;-46
2021/06/08 00:30:28;;;;;;;;;;;;;;;20.04;69.14;100821.91;5051128;28;1701;-46
2021/06/08 00:32:55;;;;;;;;;;;;;;;20.09;69.66;100824.97;5051858;28;1909;-45
2021/06/08 00:35:21;;;;;;;;;;;;;;;20.07;69.16;100818.91;5047240;28;1503;-46
2021/06/08 00:37:49;;;;;;;;;;;;;;;20.02;69.25;100831.94;5044105;28;1876;-45
2021/06/08 00:40:31;;;;;;;;;;;;;;;20.05;69.14;100819.06;5047045;28;1687;-46
2021/06/08 00:43:05;;;;;;;;;;;;;;;20.08;68.86;100820.63;5043423;28;1446;-45
2021/06/08 00:45:32;;;;;;;;;;;;;;;20.08;69.19;100814.41;5050890;28;1602;-46
2021/06/08 00:48:06;;;;;;;;;;;;;;;20.10;68.46;100810.59;5050284;28;1676;-47
2021/06/08 00:50:33;;;;;;;;;;;;;;;20.10;68.61;100815.94;5044927;28;1525;-46
2021/06/08 00:53:02;;;;;;;;;;;;;;;20.06;69.62;100814.53;5047201;28;1902;-46
2021/06/08 00:58:11;;;;;;;;;;;;;;;20.06;68.96;100804.66;5051472;28;1785;-46
2021/06/08 01:00:37;;;;;;;;;;;;;;;20.06;68.67;100809.19;5046409;28;1946;-46
2021/06/08 01:03:06;;;;;;;;;;;;;;;20.08;68.25;100812.56;5050168;28;1776;-46
2021/06/08 01:05:39;;;;;;;;;;;;;;;20.04;68.40;100814.69;5049205;28;1521;-46
2021/06/08 01:08:06;;;;;;;;;;;;;;;20.04;67.98;100813.84;5042363;28;1614;-46
2021/06/08 01:10:32;;;;;;;;;;;;;;;20.00;68.51;100810.59;5051134;28;1524;-46
2021/06/08 01:13:02;;;;;;;;;;;;;;;20.01;67.92;100801.53;5051095;28;1772;-46
2021/06/08 01:18:30;;;;;;;;;;;;;;;20.03;67.97;100801.38;5049226;28;3675;-46
2021/06/08 01:21:06;;;;;;;;;;;;;;;20.05;68.26;100802.09;5048339;28;1686;-46
2021/06/08 01:23:35;;;;;;;;;;;;;;;20.06;68.76;100809.19;5050763;28;1524;-46
2021/06/08 01:26:03;;;;;;;;;;;;;;;20.03;67.88;100798.72;5047741;28;1701;-46
2021/06/08 01:28:30;;;;;;;;;;;;;;;20.02;68.43;100810.44;5052764;28;1892;-46
2021/06/08 01:30:57;;;;;;;;;;;;;;;20.02;67.43;100805.09;5051023;28;1791;-46
2021/06/08 01:33:29;;;;;;;;;;;;;;;19.97;68.18;100812.69;5044762;28;1906;-45
2021/06/08 01:35:59;;;;;;;;;;;;;;;19.94;68.71;100807.63;5049249;28;1574;-46
2021/06/08 01:38:31;;;;;;;;;;;;;;;19.92;68.04;100818.50;5050217;28;1853;-46
2021/06/08 01:41:00;;;;;;;;;;;;;;;19.96;67.37;100816.38;5052200;28;1705;-46
2021/06/08 01:43:29;;;;;;;;;;;;;;;19.92;67.60;100812.28;5042410;28;1520;-45
2021/06/08 01:45:56;;;;;;;;;;;;;;;19.93;67.22;100801.38;5051208;28;1721;-47
2021/06/08 01:48:25;;;;;;;;;;;;;;;19.93;68.45;100805.91;5051003;28;1634;-45
2021/06/08 01:50:53;;;;;;;;;;;;;;;19.93;68.41;100803.22;5054118;28;1782;-45
2021/06/08 01:53:23;;;;;;;;;;;;;;;19.94;67.63;100813.00;5050432;28;1910;-46
2021/06/08 01:56:02;;;;;;;;;;;;;;;19.96;68.26;100803.81;5054606;28;1553;-45
2021/06/08 01:58:34;;;;;;;;;;;;;;;19.95;67.31;100812.81;5051675;28;1411;-47
2021/06/08 02:01:02;;;;;;;;;;;;;;;19.96;67.23;100811.00;5063611;22;3611;-62
2021/06/08 02:03:31;;;;;;;;;;;;;;;19.89;68.13;100812.56;5064080;28;1605;-63
2021/06/08 02:09:02;;;;;;;;;;;;;;;19.92;68.35;100823.03;5062429;28;1399;-66
2021/06/08 02:11:31;;;;;;;;;;;;;;;19.95;68.13;100817.34;5064726;28;1502;-66
2021/06/08 02:14:04;;;;;;;;;;;;;;;19.98;67.76;100811.72;5059990;28;1979;-63
2021/06/08 02:16:31;;;;;;;;;;;;;;;19.97;67.47;100826.13;5058291;28;1741;-63
2021/06/08 02:18:58;;;;;;;;;;;;;;;19.91;67.16;100821.31;5060417;28;1708;-66
2021/06/08 02:21:26;;;;;;;;;;;;;;;19.92;67.60;100809.59;5059369;28;1395;-68
2021/06/08 02:23:54;;;;;;;;;;;;;;;19.94;67.97;100831.78;5065274;28;1716;-63
2021/06/08 02:26:23;;;;;;;;;;;;;;;19.96;67.73;100819.91;5062595;28;1292;-65
2021/06/08 02:28:51;;;;;;;;;;;;;;;19.95;67.97;100814.66;5055022;28;1152;-62
2021/06/08 02:31:18;;;;;;;;;;;;;;;19.96;67.60;100819.06;5060628;28;1470;-63
2021/06/08 02:33:46;;;;;;;;;;;;;;;19.88;67.02;100832.34;5061073;28;1975;-62
2021/06/08 02:36:13;;;;;;;;;;;;;;;19.90;66.63;100830.38;5063984;28;1700;-67
2021/06/08 02:38:39;;;;;;;;;;;;;;;19.91;67.36;100810.56;5057858;28;1382;-67
2021/06/08 02:41:06;;;;;;;;;;;;;;;19.93;67.20;100824.69;5066229;28;1527;-66
2021/06/08 02:43:32;;;;;;;;;;;;;;;19.94;67.89;100826.41;5061721;28;1513;-66
2021/06/08 02:46:01;;;;;;;;;;;;;;;19.94;66.74;100815.69;5064884;28;1419;-63
2021/06/08 02:48:28;;;;;;;;;;;;;;;19.83;66.23;100820.16;5061806;28;1302;-67
2021/06/08 02:50:54;;;;;;;;;;;;;;;19.83;66.27;100824.69;5060794;28;1549;-63
2021/06/08 02:53:22;;;;;;;;;;;;;;;19.85;66.50;100817.34;5059870;28;1975;-67
2021/06/08 02:55:48;;;;;;;;;;;;;;;19.84;66.77;100816.50;5067598;28;1525;-66
2021/06/08 02:58:14;;;;;;;;;;;;;;;19.82;66.60;100826.53;5056202;28;1798;-68
2021/06/08 03:00:41;;;;;;;;;;;;;;;19.84;66.48;100823.72;5062870;28;1505;-62
2021/06/08 03:03:09;;;;;;;;;;;;;;;19.89;66.65;100834.03;5060176;28;1494;-66
2021/06/08 03:05:38;;;;;;;;;;;;;;;19.93;66.83;100840.81;5061695;28;1442;-63
2021/06/08 03:08:09;;;;;;;;;;;;;;;19.92;67.01;100839.13;5060955;28;1771;-62
2021/06/08 03:10:36;;;;;;;;;;;;;;;19.84;67.15;100824.56;5060442;28;1367;-67
2021/06/08 03:13:02;;;;;;;;;;;;;;;19.83;66.48;100825.53;5059893;28;1716;-63
2021/06/08 03:15:30;;;;;;;;;;;;;;;19.91;67.00;100842.78;5059397;28;1960;-64
2021/06/08 03:17:56;;;;;;;;;;;;;;;19.95;66.76;100849.56;5057093;28;1419;-67
2021/06/08 03:20:28;;;;;;;;;;;;;;;19.93;66.66;100840.81;5061067;28;1144;-66
2021/06/08 03:22:56;;;;;;;;;;;;;;;19.91;67.10;100837.41;5059325;28;1513;-66
2021/06/08 03:25:24;;;;;;;;;;;;;;;19.82;67.21;100845.31;5055080;28;1254;-62
2021/06/08 03:27:50;;;;;;;;;;;;;;;19.85;67.07;100853.06;5056990;28;1331;-63
2021/06/08 03:30:18;;;;;;;;;;;;;;;19.89;67.29;100850.97;5058575;28;1514;-66
2021/06/08 03:32:44;;;;;;;;;;;;;;;19.96;67.68;100851.28;5059754;28;1363;-62
2021/06/08 03:35:11;;;;;;;;;;;;;;;19.95;66.59;100846.88;5063568;28;1979;-63
2021/06/08 03:37:40;;;;;;;;;;;;;;;19.97;66.87;100861.84;5054718;28;1490;-63
2021/06/08 03:40:06;;;;;;;;;;;;;;;19.95;67.59;100854.94;5058063;28;1541;-67
2021/06/08 03:42:33;;;;;;;;;;;;;;;20.04;67.01;100864.84;5063072;28;1343;-62
2021/06/08 03:44:59;;;;;;;;;;;;;;;20.04;66.96;100859.47;5062305;28;1518;-62
2021/06/08 03:47:25;;;;;;;;;;;;;;;19.96;66.98;100873.59;5058686;28;1810;-66
2021/06/08 03:49:54;;;;;;;;;;;;;;;19.98;67.30;100876.97;5061912;28;1364;-66
2021/06/08 03:52:20;;;;;;;;;;;;;;;20.00;68.26;100875.00;5056552;28;1175;-63
2021/06/08 03:54:48;;;;;;;;;;;;;;;20.01;67.44;100865.09;5060580;28;1910;-62
2021/06/08 03:57:38;;;;;;;;;;;;;;;20.04;67.87;100875.59;5032572;28;1167;-63
2021/06/08 04:00:04;;;;;;;;;;;;;;;20.03;67.61;100884.59;5057816;28;1353;-63
2021/06/08 04:02:31;;;;;;;;;;;;;;;20.06;68.25;100890.56;5058992;28;1349;-63
2021/06/08 04:04:57;;;;;;;;;;;;;;;20.08;67.17;100882.38;5056420;28;1411;-66
2021/06/08 04:07:23;;;;;;;;;;;;;;;20.06;67.72;100887.88;5055153;28;1544;-67
2021/06/08 04:09:51;;;;;;;;;;;;;;;20.08;67.86;100882.38;5054921;28;1350;-62
2021/06/08 04:12:20;;;;;;;;;;;;;;;20.10;67.89;100885.75;5059127;28;1280;-67
2021/06/08 04:14:47;;;;;;;;;;;;;;;20.11;67.99;100884.75;5053331;28;1902;-67
2021/06/08 04:17:13;;;;;;;;;;;;;;;20.08;66.89;100877.00;5058362;28;1247;-66
2021/06/08 04:19:39;;;;;;;;;;;;;;;20.04;67.90;100894.38;5060224;28;1331;-63
2021/06/08 04:22:05;;;;;;;;;;;;;;;20.06;67.36;100893.22;5056321;28;1505;-66
2021/06/08 04:24:31;;;;;;;;;;;;;;;20.11;67.92;100890.13;5059407;28;1346;-66
2021/06/08 04:27:00;;;;;;;;;;;;;;;20.16;67.41;100884.34;5057329;28;1411;-66
2021/06/08 04:29:26;;;;;;;;;;;;;;;20.19;67.01;100890.28;5053100;28;1343;-62
2021/06/08 04:31:52;;;;;;;;;;;;;;;20.24;67.18;100889.88;5062028;28;1303;-68
2021/06/08 04:34:19;;;;;;;;;;;;;;;20.22;67.52;100911.47;5055738;28;1910;-67
2021/06/08 04:36:45;;;;;;;;;;;;;;;20.23;67.90;100905.13;5058784;28;1560;-62
2021/06/08 04:39:11;;;;;;;;;;;;;;;20.29;67.38;100892.13;5058328;28;1565;-63
2021/06/08 04:41:39;;;;;;;;;;;;;;;20.26;67.53;100886.03;5057532;28;1522;-67
2021/06/08 04:44:07;;;;;;;;;;;;;;;20.22;67.78;100890.00;5054512;28;1357;-66
2021/06/08 04:46:37;;;;;;;;;;;;;;;20.27;68.24;100897.63;5057036;28;1791;-63
2021/06/08 04:49:03;;;;;;;;;;;;;;;20.31;67.34;100892.81;5056072;28;1442;-66
2021/06/08 04:51:29;;;;;;;;;;;;;;;20.32;67.27;100881.09;5059346;28;1596;-66
2021/06/08 04:53:55;;;;;;;;;;;;;;;20.33;67.04;100891.69;5058603;28;1910;-66
2021/06/08 04:56:21;;;;;;;;;;;;;;;20.39;67.73;100895.66;5056855;28;1534;-66
2021/06/08 04:58:48;;;;;;;;;;;;;;;20.37;67.08;100890.44;5060380;28;1490;-63
2021/06/08 05:01:21;;;;;;;;;;;;;;;20.40;67.45;100903.56;5056886;28;1517;-68
2021/06/08 05:03:48;;;;;;;;;;;;;;;20.44;67.39;100896.09;5055371;28;1387;-66
2021/06/08 05:06:17;;;;;;;;;;;;;;;20.42;67.10;100923.09;5058090;28;1844;-66
2021/06/08 05:08:45;;;;;;;;;;;;;;;20.40;67.08;100918.84;5062954;28;1393;-66
2021/06/08 05:11:13;;;;;;;;;;;;;;;20.47;66.94;100901.16;5060466;28;1477;-66
2021/06/08 05:13:42;;;;;;;;;;;;;;;20.46;67.12;100919.13;5060105;28;1975;-67
2021/06/08 05:16:08;;;;;;;;;;;;;;;20.50;67.16;100910.78;5063519;28;1344;-68
2021/06/08 05:18:37;;;;;;;;;;;;;;;20.44;67.40;100928.31;5060952;28;1398;-68
2021/06/08 05:21:05;;;;;;;;;;;;;;;20.45;68.05;100916.56;5057645;28;1397;-66
2021/06/08 05:23:33;;;;;;;;;;;;;;;20.42;68.41;100915.03;5060031;28;1339;-68
2021/06/08 05:25:59;;;;;;;;;;;;;;;20.42;67.59;100911.50;5063057;28;1739;-68
2021/06/08 05:28:26;;;;;;;;;;;;;;;20.39;67.51;100901.91;5056163;28;1457;-66
2021/06/08 05:30:53;;;;;;;;;;;;;;;20.42;68.44;100903.44;5059429;28;1337;-67
2021/06/08 05:33:19;;;;;;;;;;;;;;;20.43;67.54;100897.06;5062630;28;1356;-63
2021/06/08 05:35:47;;;;;;;;;;;;;;;20.44;67.75;100909.53;5063457;28;1973;-63
2021/06/08 05:38:14;;;;;;;;;;;;;;;20.44;68.58;100902.28;5059539;28;1440;-67
2021/06/08 05:40:43;;;;;;;;;;;;;;;20.43;68.82;100902.44;5061223;28;1537;-66
2021/06/08 05:43:09;;;;;;;;;;;;;;;20.45;68.20;100897.75;5058831;28;1179;-63
2021/06/08 05:45:35;;;;;;;;;;;;;;;20.46;67.69;100903.00;5060025;28;1485;-63
2021/06/08 05:48:01;;;;;;;;;;;;;;;20.50;68.94;100895.50;5074132;28;1398;-71
2021/06/08 05:50:27;;;;;;;;;;;;;;;20.54;68.87;100898.78;5059439;28;1460;-62
2021/06/08 05:52:55;;;;;;;;;;;;;;;20.57;68.52;100891.28;5062865;28;1164;-70
2021/06/08 05:55:24;;;;;;;;;;;;;;;20.44;67.14;100898.78;5058940;28;1984;-71
2021/06/08 05:57:50;;;;;;;;;;;;;;;20.36;67.40;100902.16;5062220;28;1312;-62
2021/06/08 06:00:17;;;;;;;;;;;;;;;20.48;67.99;100896.66;5062682;28;1680;-64
2021/06/08 06:02:44;;;;;;;;;;;;;;;20.51;68.80;100901.72;5064927;28;1431;-63
2021/06/08 06:05:11;;;;;;;;;;;;;;;20.50;69.30;100900.03;5064535;28;1537;-61
2021/06/08 06:07:38;;;;;;;;;;;;;;;20.58;68.78;100898.34;5064141;28;1411;-63
2021/06/08 06:10:06;;;;;;;;;;;;;;;20.61;70.04;100908.84;5060299;28;1323;-70
2021/06/08 06:12:32;;;;;;;;;;;;;;;20.68;68.71;100910.94;5066425;28;1488;-69
2021/06/08 06:15:04;;;;;;;;;;;;;;;20.71;68.32;100916.03;5062431;28;1984;-70
2021/06/08 06:17:32;;;;;;;;;;;;;;;20.73;67.76;100919.41;5054417;28;1333;-62
2021/06/08 06:19:58;;;;;;;;;;;;;;;20.77;67.98;100893.94;5063359;28;1467;-62
2021/06/08 06:22:24;;;;;;;;;;;;;;;20.77;68.72;100910.94;5057443;28;1342;-70
2021/06/08 06:24:50;;;;;;;;;;;;;;;20.79;68.90;100908.09;5067277;28;1510;-70
2021/06/08 06:27:18;;;;;;;;;;;;;;;20.74;68.52;100905.00;5068989;28;1362;-62
2021/06/08 06:29:45;;;;;;;;;;;;;;;20.70;69.35;100903.59;5056915;28;1556;-69
2021/06/08 06:32:11;;;;;;;;;;;;;;;20.75;69.20;100904.00;5056502;28;1462;-70
2021/06/08 06:34:37;;;;;;;;;;;;;;;20.79;68.93;100902.72;5056891;28;1902;-62
2021/06/08 06:37:06;;;;;;;;;;;;;;;20.81;69.39;100876.53;5060529;28;1335;-62
2021/06/08 06:39:33;;;;;;;;;;;;;;;20.81;68.85;100912.34;5063626;28;1752;-62
2021/06/08 06:42:01;;;;;;;;;;;;;;;20.83;69.65;100890.69;5060038;28;1331;-62
2021/06/08 06:44:31;;;;;;;;;;;;;;;20.86;68.71;100895.78;5062681;28;1348;-62
2021/06/08 06:46:58;;;;;;;;;;;;;;;20.86;68.58;100893.94;5054852;28;1448;-62
2021/06/08 06:49:24;;;;;;;;;;;;;;;20.88;69.16;100874.13;5059185;28;1409;-62
2021/06/08 06:51:50;;;;;;;;;;;;;;;20.84;68.71;100889.69;5062192;28;1601;-62
2021/06/08 06:54:17;;;;;;;;;;;;;;;20.82;69.70;100894.38;5061558;28;1914;-62
2021/06/08 06:56:44;;;;;;;;;;;;;;;20.88;69.44;100888.41;5057133;28;1530;-62
2021/06/08 06:59:11;;;;;;;;;;;;;;;20.91;69.36;100872.00;5057200;28;1310;-62
2021/06/08 07:01:41;;;;;;;;;;;;;;;20.91;69.68;100877.41;5060101;28;1688;-62
2021/06/08 07:04:08;;;;;;;;;;;;;;;20.89;69.01;100884.75;5055954;28;1398;-70
2021/06/08 07:06:35;;;;;;;;;;;;;;;20.85;69.10;100876.13;5060556;28;1524;-62
2021/06/08 07:09:01;;;;;;;;;;;;;;;20.84;68.98;100876.25;5064344;28;1323;-70
2021/06/08 07:11:28;;;;;;;;;;;;;;;20.87;69.05;100889.44;5059159;28;1512;-70
2021/06/08 07:13:57;;;;;;;;;;;;;;;20.85;69.11;100880.66;5057277;28;1975;-70
2021/06/08 07:16:23;;;;;;;;;;;;;;;20.88;69.11;100874.97;5058032;28;1412;-62
2021/06/08 07:18:51;;;;;;;;;;;;;;;20.92;68.93;100871.00;5062344;28;1566;-69
2021/06/08 07:21:18;;;;;;;;;;;;;;;20.93;68.84;100872.72;5062100;28;1434;-68
2021/06/08 07:23:46;;;;;;;;;;;;;;;20.86;69.99;100863.53;5062261;28;1386;-61
2021/06/08 07:26:13;;;;;;;;;;;;;;;20.90;69.12;100856.88;5062433;28;1508;-62
2021/06/08 07:28:39;;;;;;;;;;;;;;;20.93;68.78;100875.41;5060227;28;1302;-61
2021/06/08 07:31:06;;;;;;;;;;;;;;;20.90;69.03;100864.94;5063290;28;1593;-69
2021/06/08 07:33:40;;;;;;;;;;;;;;;20.94;69.12;100863.66;5056644;28;1391;-69
2021/06/08 07:36:10;;;;;;;;;;;;;;;20.92;69.08;100859.41;5061540;28;1977;-61
2021/06/08 07:38:38;;;;;;;;;;;;;;;20.95;69.68;100853.72;5057249;28;1348;-61
2021/06/08 07:41:07;;;;;;;;;;;;;;;20.96;68.99;100864.34;5063321;28;1564;-61
2021/06/08 07:43:35;;;;;;;;;;;;;;;20.97;69.28;100862.50;5053818;28;1482;-69
2021/06/08 07:46:05;;;;;;;;;;;;;;;20.99;69.01;100861.38;5061239;28;1375;-70
2021/06/08 07:48:31;;;;;;;;;;;;;;;21.01;69.82;100867.44;5058475;28;1421;-69
2021/06/08 07:50:59;;;;;;;;;;;;;;;21.02;69.01;100853.00;5062449;28;1561;-69
2021/06/08 07:53:30;;;;;;;;;;;;;;;21.00;69.47;100872.97;5062898;28;1469;-69
2021/06/08 07:55:57;;;;;;;;;;;;;;;21.00;69.18;100873.81;5058260;28;1984;-69
2021/06/08 07:58:23;;;;;;;;;;;;;;;20.96;70.00;100877.78;5066058;28;1262;-69
2021/06/08 08:00:50;;;;;;;;;;;;;;;21.00;68.79;100873.81;5061257;28;1506;-63
2021/06/08 08:03:26;;;;;;;;;;;;;;;20.99;69.41;100856.00;5068085;28;1748;-61
2021/06/08 08:05:52;;;;;;;;;;;;;;;20.98;69.04;100874.97;5056471;28;1685;-64
2021/06/08 08:08:19;;;;;;;;;;;;;;;21.00;68.97;100871.13;5060934;28;1725;-61
2021/06/08 08:10:47;;;;;;;;;;;;;;;21.03;69.02;100880.75;5062917;28;1180;-61
2021/06/08 08:13:15;;;;;;;;;;;;;;;20.97;70.00;100863.38;5064208;28;1025;-59
2021/06/08 08:15:43;;;;;;;;;;;;;;;21.01;69.96;100877.38;5063490;28;1917;-73
2021/06/08 08:18:09;;;;;;;;;;;;;;;20.98;69.43;100864.19;5061151;28;1660;-61
2021/06/08 08:20:41;;;;;;;;;;;;;;;20.99;70.11;100856.00;5060572;28;1402;-72
2021/06/08 08:23:08;;;;;;;;;;;;;;;21.00;69.15;100868.44;5062493;28;1502;-63
2021/06/08 08:25:34;;;;;;;;;;;;;;;21.03;69.94;100868.16;5064881;28;1532;-67
2021/06/08 08:28:01;;;;;;;;;;;;;;;21.05;70.08;100865.31;5067642;28;1486;-59
2021/06/08 08:30:27;;;;;;;;;;;;;;;21.03;70.13;100867.31;5058867;28;1673;-69
2021/06/08 08:32:53;;;;;;;;;;;;;;;21.02;70.33;100866.44;5060331;28;1411;-68
2021/06/08 08:35:19;;;;;;;;;;;;;;;21.05;69.87;100870.69;5064033;28;1910;-61
2021/06/08 08:37:45;;;;;;;;;;;;;;;21.01;69.34;100859.38;5067173;28;1355;-62
2021/06/08 08:40:11;;;;;;;;;;;;;;;21.01;69.47;100864.75;5061349;28;1487;-71
2021/06/08 08:42:38;;;;;;;;;;;;;;;21.03;69.84;100867.31;5059630;28;1032;-62
2021/06/08 08:45:07;;;;;;;;;;;;;;;21.08;69.19;100877.63;5060934;28;1584;-66
2021/06/08 08:47:33;;;;;;;;;;;;;;;21.04;69.27;100848.31;5072401;28;1367;-61
2021/06/08 08:49:59;;;;;;;;;;;;;;;21.05;69.90;100863.47;5069508;28;1459;-61
2021/06/08 08:52:25;;;;;;;;;;;;;;;21.05;69.27;100865.31;5066919;28;1411;-62
2021/06/08 08:54:52;;;;;;;;;;;;;;;21.06;69.14;100867.00;5070030;28;1910;-62
2021/06/08 08:57:18;;;;;;;;;;;;;;;21.02;70.47;100855.69;5063856;28;1574;-64
2021/06/08 08:59:44;;;;;;;;;;;;;;;21.01;69.65;100845.94;5067528;28;1402;-64
2021/06/08 09:02:12;;;;;;;;;;;;;;;21.03;70.03;100843.13;5065097;28;1700;-62
2021/06/08 09:04:39;;;;;;;;;;;;;;;21.12;69.79;100847.59;5070464;28;1354;-68
2021/06/08 09:07:05;;;;;;;;;;;;;;;21.12;69.45;100854.81;5065952;28;1406;-63
2021/06/08 09:09:32;;;;;;;;;;;;;;;21.14;69.51;100847.44;5067284;28;1180;-66
2021/06/08 09:12:03;;;;;;;;;;;;;;;21.15;69.41;100843.75;5067460;28;1610;-63
2021/06/08 09:14:29;;;;;;;;;;;;;;;21.14;69.79;100850.97;5066741;28;1976;-63
2021/06/08 09:16:56;;;;;;;;;;;;;;;21.11;69.68;100831.59;5069365;28;1667;-63
2021/06/08 09:19:27;;;;;;;;;;;;;;;21.08;70.31;100845.34;5065745;28;1533;-67
2021/06/08 09:21:54;;;;;;;;;;;;;;;21.12;69.06;100827.94;5066721;28;1641;-63
2021/06/08 09:24:21;;;;;;;;;;;;;;;21.14;69.58;100834.84;5071301;28;1034;-65
2021/06/08 09:26:51;;;;;;;;;;;;;;;21.17;70.09;100834.56;5060923;28;1593;-73
2021/06/08 09:29:27;;;;;;;;;;;;;;;21.17;70.36;100831.00;5061698;28;1672;-68
2021/06/08 09:32:08;;;;;;;;;;;;;;;21.17;70.19;100847.13;5072462;28;1724;-70
2021/06/08 09:34:36;;;;;;;;;;;;;;;21.13;70.44;100826.91;5069057;28;1905;-69
2021/06/08 09:37:04;;;;;;;;;;;;;;;21.06;70.48;100819.44;5069155;28;1255;-67
2021/06/08 09:39:30;;;;;;;;;;;;;;;21.08;70.57;100826.53;5068960;28;1498;-64
2021/06/08 09:41:56;;;;;;;;;;;;;;;21.03;70.66;100830.50;5070948;28;1505;-68
2021/06/08 09:44:22;;;;;;;;;;;;;;;21.03;70.30;100819.75;5063149;28;1629;-66
2021/06/08 09:46:49;;;;;;;;;;;;;;;21.03;70.55;100816.22;5070437;28;1082;-75
2021/06/08 09:49:16;;;;;;;;;;;;;;;21.00;70.46;100814.66;5068610;28;1704;-65
2021/06/08 09:51:48;;;;;;;;;;;;;;;21.00;70.42;100811.97;5068073;28;1724;-67
2021/06/08 09:54:29;;;;;;;;;;;;;;;21.01;70.67;100813.69;5068642;28;1905;-67
2021/06/08 09:57:10;;;;;;;;;;;;;;;20.99;69.90;100810.28;5065512;28;1646;-66
2021/06/08 09:59:39;;;;;;;;;;;;;;;20.99;70.88;100818.38;5058355;28;1434;-60
2021/06/08 10:02:19;;;;;;;;;;;;;;;21.00;70.81;100816.50;5066991;28;1530;-65
2021/06/08 10:04:45;;;;;;;;;;;;;;;20.98;70.78;100815.81;5060828;28;1495;-64
2021/06/08 10:07:24;;;;;;;;;;;;;;;21.06;70.75;100806.00;5063922;28;1506;-61
2021/06/08 10:10:01;;;;;;;;;;;;;;;21.02;70.20;100796.53;5061594;28;1513;-68
2021/06/08 10:12:29;;;;;;;;;;;;;;;21.08;70.11;100807.72;5060724;28;1606;-80
2021/06/08 10:15:04;;;;;;;;;;;;;;;21.08;70.52;100788.88;5068999;28;1910;-64
2021/06/08 10:17:30;;;;;;;;;;;;;;;21.07;70.34;100788.06;5061021;28;1644;-74
2021/06/08 10:19:56;;;;;;;;;;;;;;;21.06;70.85;100781.81;5068649;28;1395;-62
2021/06/08 10:22:30;;;;;;;;;;;;;;;21.06;70.68;100781.81;5066815;28;1624;-62
2021/06/08 10:24:56;;;;;;;;;;;;;;;21.09;70.19;100790.56;5065297;28;1560;-62
2021/06/08 10:27:22;;;;;;;;;;;;;;;21.07;70.45;100788.06;5065263;28;1525;-66
2021/06/08 10:29:48;;;;;;;;;;;;;;;21.05;70.69;100774.75;5069415;28;1580;-61
2021/06/08 10:32:15;;;;;;;;;;;;;;;21.01;71.04;100778.72;5075985;28;1352;-62
2021/06/08 10:34:41;;;;;;;;;;;;;;;21.00;70.27;100763.59;5061753;28;1969;-62
2021/06/08 10:37:08;;;;;;;;;;;;;;;20.98;70.90;100773.63;5065874;28;1581;-62
2021/06/08 10:39:35;;;;;;;;;;;;;;;20.96;71.00;100764.88;5059209;28;1450;-62
2021/06/08 10:42:02;;;;;;;;;;;;;;;20.95;70.74;100756.94;5067305;28;1541;-62
2021/06/08 10:44:28;;;;;;;;;;;;;;;20.94;70.05;100757.97;5064664;28;1525;-62
2021/06/08 10:46:56;;;;;;;;;;;;;;;20.94;69.74;100757.97;5061538;28;1584;-62
2021/06/08 10:49:37;;;;;;;;;;;;;;;20.98;70.83;100751.28;5070170;28;1412;-62
2021/06/08 10:52:04;;;;;;;;;;;;;;;20.99;70.17;100743.09;5063847;28;1375;-62
2021/06/08 10:54:36;;;;;;;;;;;;;;;21.03;70.25;100749.03;5063567;28;1906;-62
2021/06/08 10:57:10;;;;;;;;;;;;;;;21.02;70.11;100736.56;5069300;28;1571;-62
2021/06/08 10:59:37;;;;;;;;;;;;;;;21.09;69.25;100736.78;5059967;28;1684;-62
2021/06/08 11:02:03;;;;;;;;;;;;;;;21.07;69.38;100728.91;5064043;28;2003;-61
2021/06/08 11:04:44;;;;;;;;;;;;;;;21.04;70.03;100730.03;5065984;28;1724;-62
2021/06/08 11:07:10;;;;;;;;;;;;;;;20.98;69.48;100716.34;5066050;28;1593;-62
2021/06/08 11:09:36;;;;;;;;;;;;;;;20.98;69.83;100733.31;5064561;28;1597;-62
2021/06/08 11:12:18;;;;;;;;;;;;;;;20.98;68.86;100709.13;5060095;28;1534;-62
2021/06/08 11:14:58;;;;;;;;;;;;;;;20.98;69.98;100682.25;5071312;28;1997;-62
2021/06/08 11:17:34;;;;;;;;;;;;;;;21.05;69.69;100718.28;5060581;28;1347;-63
2021/06/08 11:20:01;;;;;;;;;;;;;;;21.06;68.78;100700.31;5056536;28;1739;-61
2021/06/08 11:22:46;;;;;;;;;;;;;;;21.03;68.64;100685.34;5070189;28;1774;-71
2021/06/08 11:25:27;;;;;;;;;;;;;;;21.05;69.32;100706.69;5066718;28;1319;-64
2021/06/08 11:27:55;;;;;;;;;;;;;;;20.99;69.53;100700.06;5065786;28;1566;-63
2021/06/08 11:30:22;;;;;;;;;;;;;;;20.97;69.09;100695.81;5076886;28;1835;-63
2021/06/08 11:32:49;;;;;;;;;;;;;;;20.96;69.61;100678.84;5072631;28;1466;-63
2021/06/08 11:35:18;;;;;;;;;;;;;;;20.98;69.78;100701.06;5071515;28;1906;-62
2021/06/08 11:37:51;;;;;;;;;;;;;;;21.02;69.31;100689.00;5072429;28;1378;-60
2021/06/08 11:40:37;;;;;;;;;;;;;;;21.01;68.63;100687.31;5071368;28;1440;-65
2021/06/08 11:43:05;;;;;;;;;;;;;;;21.08;69.26;100697.47;5064974;28;1673;-68
2021/06/08 11:45:32;;;;;;;;;;;;;;;21.06;68.44;100690.38;5069774;28;1591;-67
2021/06/08 11:47:58;;;;;;;;;;;;;;;21.13;68.45;100684.41;5063903;28;1607;-67
2021/06/08 11:50:37;;;;;;;;;;;;;;;21.09;68.29;100699.16;5065097;28;1498;-64
2021/06/08 11:53:06;;;;;;;;;;;;;;;21.03;68.49;100689.88;5065688;28;1517;-64
2021/06/08 11:55:34;;;;;;;;;;;;;;;21.00;67.77;100682.94;5069834;28;1971;-66
2021/06/08 11:58:00;;;;;;;;;;;;;;;20.98;68.75;100686.78;5064213;28;1007;-65
2021/06/08 12:03:28;;;;;;;;;;;;;;;21.01;68.04;100687.31;5181870;27;1851;-45
2021/06/08 12:05:54;;;;;;;;;;;;;;;20.99;68.83;100688.44;5164268;27;1744;-45
2021/06/08 12:08:23;;;;;;;;;;;;;;;20.98;68.03;100693.00;5163056;27;1434;-45
2021/06/08 12:10:50;;;;;;;;;;;;;;;20.96;68.59;100692.28;5163589;27;1374;-45
2021/06/08 12:13:17;;;;;;;;;;;;;;;20.93;67.70;100681.84;5157892;27;1470;-45
2021/06/08 12:15:43;;;;;;;;;;;;;;;20.96;68.19;100678.84;5166435;27;1966;-45
2021/06/08 12:18:10;;;;;;;;;;;;;;;20.97;68.26;100675.19;5162552;27;1698;-45
2021/06/08 12:20:38;;;;;;;;;;;;;;;20.94;68.26;100678.16;5160139;27;1880;-45
2021/06/08 12:23:04;;;;;;;;;;;;;;;21.01;67.33;100673.88;5162231;27;1935;-45
2021/06/08 12:25:30;;;;;;;;;;;;;;;21.02;68.05;100680.94;5160070;27;1532;-45
2021/06/08 12:27:57;;;;;;;;;;;;;;;21.01;67.92;100665.81;5160467;27;1723;-45
2021/06/08 12:30:23;;;;;;;;;;;;;;;21.01;67.12;100648.84;5160210;27;1537;-46
2021/06/08 12:32:57;;;;;;;;;;;;;;;21.02;66.80;100656.75;5162572;27;1817;-45
2021/06/08 12:35:33;;;;;;;;;;;;;;;21.06;67.08;100657.28;5162720;27;1716;-45
2021/06/08 12:38:15;;;;;;;;;;;;;;;21.10;67.08;100652.47;5159550;27;1915;-46
2021/06/08 12:40:41;;;;;;;;;;;;;;;21.08;66.88;100662.53;5159064;27;1645;-45
2021/06/08 12:43:08;;;;;;;;;;;;;;;21.03;67.31;100671.88;5163721;27;1980;-45
2021/06/08 12:45:34;;;;;;;;;;;;;;;21.04;67.88;100670.88;5157903;27;1780;-45
2021/06/08 12:48:00;;;;;;;;;;;;;;;21.04;67.53;100660.13;5160173;27;1827;-47
2021/06/08 12:50:30;;;;;;;;;;;;;;;21.02;67.88;100659.44;5168429;27;1906;-45
2021/06/08 12:52:57;;;;;;;;;;;;;;;21.02;67.34;100648.69;5169722;27;1732;-45
2021/06/08 12:55:27;;;;;;;;;;;;;;;21.06;66.51;100658.13;5163130;27;2070;-45
2021/06/08 12:57:57;;;;;;;;;;;;;;;21.02;67.53;100650.53;5159839;27;1425;-45
2021/06/08 13:00:24;;;;;;;;;;;;;;;21.01;67.36;100647.00;5163886;27;1816;-45
2021/06/08 13:02:51;;;;;;;;;;;;;;;21.01;66.59;100649.69;5150452;27;1978;-46
2021/06/08 13:05:20;;;;;;;;;;;;;;;21.02;66.76;100648.69;5157908;27;1619;-45